createdAt,value
2022-08-24T00:01:59.833Z,18.50
2022-08-24T00:09:33.833Z,18.46
2022-08-24T00:17:09.833Z,18.39
2022-08-24T00:24:44.331Z,18.33
2022-08-24T00:32:19.464Z,18.23
2022-08-24T00:39:54.516Z,18.15
2022-08-24T00:47:33.895Z,18.09
2022-08-24T00:55:11.153Z,17.99
2022-08-24T01:02:49.866Z,17.88
2022-08-24T01:10:27.110Z,17.81
2022-08-24T01:18:21.195Z,17.77
2022-08-24T01:25:56.656Z,17.75
2022-08-24T01:33:33.075Z,17.71
2022-08-24T01:41:08.498Z,17.66
2022-08-24T01:48:46.092Z,17.59
2022-08-24T01:56:21.196Z,17.53
2022-08-24T02:03:54.743Z,17.50
2022-08-24T02:11:31.736Z,17.46
2022-08-24T02:19:05.598Z,17.45
2022-08-24T02:26:40.698Z,17.37
2022-08-24T02:34:14.232Z,17.34
2022-08-24T02:41:49.847Z,17.29
2022-08-24T02:49:24.055Z,17.24
2022-08-24T02:56:59.185Z,17.19
2022-08-24T03:04:33.170Z,17.14
2022-08-24T03:12:08.704Z,17.03
2022-08-24T03:19:42.823Z,17.08
2022-08-24T03:27:18.027Z,17.17
2022-08-24T03:34:52.415Z,17.24
2022-08-24T03:42:27.830Z,17.26
2022-08-24T03:50:01.786Z,17.23
2022-08-24T03:57:37.089Z,17.19
2022-08-24T04:05:13.368Z,17.15
2022-08-24T04:12:49.738Z,17.11
2022-08-24T04:20:24.135Z,17.02
2022-08-24T04:27:59.255Z,16.99
2022-08-24T04:35:33.374Z,16.96
2022-08-24T04:43:09.142Z,16.98
2022-08-24T04:50:45.285Z,17.01
2022-08-24T04:58:20.675Z,17.05
2022-08-24T05:05:54.665Z,17.17
2022-08-24T05:13:29.768Z,17.24
2022-08-24T05:21:07.237Z,17.36
2022-08-24T05:28:42.473Z,17.43
2022-08-24T05:36:18.899Z,17.51
2022-08-24T05:43:54.554Z,17.60
2022-08-24T05:51:29.768Z,17.66
2022-08-24T05:59:05.390Z,17.71
2022-08-24T06:06:39.439Z,17.82
2022-08-24T06:14:17.082Z,17.86
2022-08-24T06:21:53.396Z,17.95
2022-08-24T06:29:28.656Z,18.05
2022-08-24T06:37:03.133Z,18.17
2022-08-24T06:44:38.577Z,18.27
2022-08-24T06:52:12.528Z,18.38
2022-08-24T06:59:47.727Z,18.44
2022-08-24T07:07:21.734Z,18.58
2022-08-24T07:14:56.908Z,18.69
2022-08-24T07:22:30.899Z,18.79
2022-08-24T07:30:25.732Z,18.90
2022-08-24T07:38:02.016Z,19.06
2022-08-24T07:45:38.035Z,19.22
2022-08-24T07:53:15.008Z,19.34
2022-08-24T08:00:53.710Z,19.49
2022-08-24T08:08:28.634Z,19.69
2022-08-24T08:16:07.967Z,19.85
2022-08-24T08:23:59.992Z,20.02
2022-08-24T08:31:36.224Z,20.13
2022-08-24T08:39:13.092Z,20.29
2022-08-24T08:47:03.247Z,20.43
2022-08-24T08:54:50.243Z,20.94
2022-08-24T09:02:43.652Z,21.10
2022-08-24T09:10:37.154Z,21.21
2022-08-24T09:18:27.831Z,21.31
2022-08-24T09:26:09.473Z,21.53
2022-08-24T09:33:46.941Z,21.85
2022-08-24T09:41:52.485Z,22.04
2022-08-24T09:49:47.703Z,22.27
2022-08-24T10:05:56.693Z,22.42
2022-08-24T10:13:40.280Z,22.52
2022-08-24T10:21:25.937Z,22.63
2022-08-24T10:29:18.816Z,22.95
2022-08-24T10:37:25.128Z,23.35
2022-08-24T10:45:12.945Z,23.73
2022-08-24T10:53:16.073Z,23.53
2022-08-24T11:00:52.330Z,23.47
2022-08-24T11:08:28.338Z,23.61
2022-08-24T11:16:05.634Z,23.49
2022-08-24T11:23:44.033Z,23.70
2022-08-24T11:31:35.028Z,23.78
2022-08-24T11:39:18.706Z,23.74
2022-08-24T11:47:01.021Z,23.75
2022-08-24T11:54:44.272Z,23.86
2022-08-24T12:02:29.595Z,23.96
2022-08-24T12:10:19.271Z,24.03
2022-08-24T12:18:05.077Z,24.42
2022-08-24T12:25:57.336Z,24.47
2022-08-24T12:33:37.745Z,24.64
2022-08-24T12:41:19.511Z,24.79
2022-08-24T12:48:59.737Z,24.71
2022-08-24T12:56:50.687Z,24.78
2022-08-24T13:04:36.292Z,24.88
2022-08-24T13:12:47.503Z,25.17
2022-08-24T13:20:27.463Z,25.51
2022-08-24T13:28:08.801Z,25.43
2022-08-24T13:36:07.295Z,25.61
2022-08-24T13:43:51.103Z,25.70
2022-08-24T13:51:46.578Z,25.81
2022-08-24T13:59:35.914Z,25.96
2022-08-24T14:07:19.184Z,26.07
2022-08-24T14:15:08.402Z,26.01
2022-08-24T14:23:00.534Z,25.83
2022-08-24T14:30:44.232Z,25.86
2022-08-24T14:38:34.582Z,26.30
2022-08-24T14:46:14.178Z,26.94
2022-08-24T14:54:01.644Z,27.28
2022-08-24T15:01:42.361Z,27.49
2022-08-24T15:09:23.561Z,26.82
2022-08-24T15:17:04.022Z,26.48
2022-08-24T15:24:45.123Z,26.39
2022-08-24T15:32:19.367Z,26.35
2022-08-24T15:39:54.575Z,26.46
2022-08-24T15:47:32.435Z,26.75
2022-08-24T15:55:16.077Z,26.79
2022-08-24T16:02:49.843Z,26.85
2022-08-24T16:10:33.354Z,26.99
2022-08-24T16:18:07.491Z,27.08
2022-08-24T16:25:47.986Z,26.98
2022-08-24T16:33:45.956Z,26.67
2022-08-24T16:41:23.665Z,26.80
2022-08-24T16:48:57.454Z,26.52
2022-08-24T16:56:32.666Z,26.43
2022-08-24T17:04:06.507Z,26.35
2022-08-24T17:11:42.342Z,26.05
2022-08-24T17:19:21.379Z,25.90
2022-08-24T17:26:57.550Z,25.84
2022-08-24T17:34:32.705Z,25.74
2022-08-24T17:42:27.896Z,25.61
2022-08-24T17:50:06.251Z,25.39
2022-08-24T17:57:45.611Z,25.35
2022-08-24T18:05:22.090Z,25.27
2022-08-24T18:12:58.941Z,25.16
2022-08-24T18:20:36.635Z,24.96
2022-08-24T18:28:12.169Z,24.85
2022-08-24T18:35:47.607Z,24.68
2022-08-24T18:43:24.807Z,24.51
2022-08-24T18:50:58.723Z,24.32
2022-08-24T18:58:33.837Z,24.25
2022-08-24T19:06:08.218Z,24.15
2022-08-24T19:13:43.995Z,24.05
2022-08-24T19:21:18.325Z,23.99
2022-08-24T19:28:53.905Z,23.86
2022-08-24T19:36:28.758Z,23.73
2022-08-24T19:44:27.698Z,23.64
2022-08-24T19:52:03.088Z,23.51
2022-08-24T19:59:41.791Z,23.38
2022-08-24T20:07:18.534Z,23.27
2022-08-24T20:14:53.719Z,23.16
2022-08-24T20:22:27.775Z,23.09
2022-08-24T20:30:03.406Z,22.95
2022-08-24T20:37:37.380Z,22.88
2022-08-24T20:45:13.949Z,22.75
2022-08-24T20:52:48.739Z,22.65
2022-08-24T21:00:24.464Z,22.56
2022-08-24T21:07:59.269Z,22.42
2022-08-24T21:15:35.091Z,22.39
2022-08-24T21:23:09.321Z,22.32
2022-08-24T21:30:44.613Z,22.29
2022-08-24T21:38:19.727Z,22.27
2022-08-24T21:45:56.611Z,22.19
2022-08-24T21:53:30.404Z,22.11
2022-08-24T22:01:06.426Z,21.98
2022-08-24T22:08:42.824Z,21.90
2022-08-24T22:16:18.327Z,21.83
2022-08-24T22:23:52.388Z,21.79
2022-08-24T22:31:33.678Z,21.78
2022-08-24T22:39:09.195Z,21.65
2022-08-24T22:46:44.661Z,21.65
2022-08-24T22:54:19.647Z,21.58
2022-08-24T23:01:55.349Z,21.54
2022-08-24T23:09:41.619Z,21.52
2022-08-24T23:17:20.726Z,21.46
2022-08-24T23:24:54.955Z,21.37
2022-08-24T23:32:30.206Z,21.34
2022-08-24T23:40:05.842Z,21.29
2022-08-24T23:47:41.295Z,21.23
2022-08-24T23:55:21.323Z,21.18
